CheckWX is a tool to help pilots better visualize weather data.  It is not intended as a substitute for an official pre-flight weather briefing.

18:37:28 UTC

ENKR METAR
Kirkenes , Høybuktmoen Airport
Kirkenes, Norway
Current

17 mins ago

ENKR 261820Z 28009KT 9999 SCT026 BKN038 M04/M06 Q1008 RMK WIND 731FT 27013KT
Observed
Mar-26 @ 18:20 UTC
Wind
  • 280° at 9 KTS
Visibility
10,000+ meters
Flight Rules
VFR
Cloud Levels
  • Scattered at 2,600' AGL
  • Broken at 3,800' AGL
Temperature
-4°C / 25°F
Dewpoint
-6°C / 21°F
Humidity
86%
Altimeter
29.76" Hg
Pressure
1007.92 hPa
Previous

47 mins ago

ENKR 261750Z 29008KT 9999 FEW009 BKN055 M04/M06 Q1008 RMK WIND 731FT 28014KT
Observed
Mar-26 @ 17:50 UTC
Wind
  • 290° at 8 KTS
Visibility
10,000+ meters
Flight Rules
VFR
Cloud Levels
  • Few at 900' AGL
  • Broken at 5,500' AGL
Temperature
-4°C / 25°F
Dewpoint
-6°C / 21°F
Humidity
86%
Altimeter
29.76" Hg
Pressure
1007.92 hPa
Previous

1 hour ago

ENKR 261720Z 30008KT 9999 SCT039 BKN053 M03/M06 Q1008 RMK WIND 731FT 27019KT
Observed
Mar-26 @ 17:20 UTC
Wind
  • 300° at 8 KTS
Visibility
10,000+ meters
Flight Rules
VFR
Cloud Levels
  • Scattered at 3,900' AGL
  • Broken at 5,300' AGL
Temperature
-3°C / 27°F
Dewpoint
-6°C / 21°F
Humidity
80%
Altimeter
29.76" Hg
Pressure
1007.92 hPa